Urucara, Brazil
Current Conditions -  °F | °C
As of 5:00 AM on Monday 24 Nov 2014 (Local Time) from SBMN Reporting Station
Clear Clear  
Wind Chill: 77°   Ceiling: Unl
Heat Index: 78°   Visibility: 6mi
Dew Point: 75°   Wind: 3mph
Humidity: 94%   Direction: 100°E
Pressure: 29.8"   Gusts: NA
Location:  2.52°S, 57.75°W
Report Text: SBMN 240900Z 10003KT CAVOK 25/24 Q1009
Loading
Personal Weather Stations






























Interactive Weather Map New forecast layout! Learn more

10-Day Weather Forecast

Advertisements
Track Severe Weather on mobile